»·PEaware :: WAT390 KLAS-KSEA

WAT390 :: KLAS-KSEA

FLIGHT INFORMATION

Flight Status: Arrived
Operator:
Walker Air Transport
More flights by this operator :: More flights under this callsign
Pilot: Ewen S. (18928)
Aircraft: AIRBUS A300B4-600
(A306)
More flights by this aircraft type
Origin: KLAS McCarran Intl
United States
Destination: KSEA Seattle-Tacoma Intl
United States
More flights between these airports :: More routes between these airports
Route: SHEAD1 OAL LOMIA LKV HAWKZ7
File this flight plan on PilotEdge
Remarks:
Altitude:
(Current/Filed)
32,000ft
Speed:
(Current/Filed)
458kts
Departed: 13-Feb-21 03:21 PM
Arrived: 13-Feb-21 06:18 PM
Distance/Time
Traveled:
752nm/2:57
Distance/Time
To Go:
Arrived

Flight Plot

Page will automatically refresh every two minutes.

Flight plan parsing failed; only flown route is shown


Map Options




Map Legend


Flown Route
Filed Route
Departure Airport
Arrival Airport
Navaid (VOR, NDB)
Fix

Horizontal Profiles

Position Reports

Time Latitude Longitude Heading Altitude Ground
Speed
13-Feb-21 14:37 36.082401 -115.125554 89 2191ft 0kts
13-Feb-21 14:38 36.082401 -115.125555 89 2191ft 0kts
13-Feb-21 14:39 36.082400 -115.125555 89 2191ft 0kts
13-Feb-21 14:40 36.082401 -115.125555 89 2191ft 0kts
13-Feb-21 14:41 36.082401 -115.125555 89 2191ft 0kts
13-Feb-21 14:42 36.082401 -115.125555 89 2191ft 0kts
13-Feb-21 14:43 36.082401 -115.125555 89 2191ft 0kts
13-Feb-21 14:44 36.082401 -115.125555 89 2191ft 0kts
13-Feb-21 14:45 36.082401 -115.125555 89 2191ft 0kts
13-Feb-21 14:46 36.082401 -115.125555 89 2191ft 0kts
13-Feb-21 14:47 36.082401 -115.125555 89 2191ft 0kts
13-Feb-21 14:48 36.082400 -115.125555 89 2191ft 0kts
13-Feb-21 14:49 36.082401 -115.125555 89 2191ft 0kts
13-Feb-21 14:50 36.082401 -115.125555 89 2191ft 0kts
13-Feb-21 14:51 36.082401 -115.125555 89 2191ft 0kts
13-Feb-21 14:52 36.082401 -115.125555 89 2191ft 0kts
13-Feb-21 14:53 36.082401 -115.125555 89 2191ft 0kts
13-Feb-21 14:55 36.082401 -115.125555 89 2191ft 0kts
13-Feb-21 14:56 36.082401 -115.125555 89 2191ft 0kts
13-Feb-21 14:57 36.082401 -115.125555 89 2191ft 0kts
13-Feb-21 14:58 36.082401 -115.125555 89 2191ft 0kts
13-Feb-21 14:59 36.082401 -115.125555 89 2191ft 0kts
13-Feb-21 15:00 36.082401 -115.125555 89 2191ft 0kts
13-Feb-21 15:01 36.082401 -115.125555 89 2191ft 0kts
13-Feb-21 15:02 36.082401 -115.125555 89 2191ft 0kts
13-Feb-21 15:03 36.082436 -115.125711 111 2191ft 2kts
13-Feb-21 15:04 36.082685 -115.126328 162 2191ft 2kts
13-Feb-21 15:05 36.082859 -115.126358 180 2191ft 0kts
13-Feb-21 15:06 36.082859 -115.126358 180 2191ft 0kts
13-Feb-21 15:07 36.082859 -115.126358 180 2191ft 0kts
13-Feb-21 15:08 36.082859 -115.126358 180 2191ft 0kts
13-Feb-21 15:08 36.082826 -115.126359 180 2191ft 1kts
13-Feb-21 15:10 36.082560 -115.126360 180 2191ft 1kts
13-Feb-21 15:11 36.080609 -115.126341 179 2191ft 6kts
13-Feb-21 15:11 36.079848 -115.126341 180 2191ft 2kts
13-Feb-21 15:13 36.079074 -115.126352 180 2191ft 0kts
13-Feb-21 15:13 36.079074 -115.126352 180 2191ft 0kts
13-Feb-21 15:14 36.079074 -115.126352 180 2191ft 0kts
13-Feb-21 15:15 36.078722 -115.126336 174 2191ft 6kts
13-Feb-21 15:16 36.078319 -115.123545 90 2191ft 6kts
13-Feb-21 15:17 36.077948 -115.122115 124 2191ft 5kts
13-Feb-21 15:18 36.077557 -115.121525 133 2191ft 0kts
13-Feb-21 15:19 36.076504 -115.121731 261 2191ft 0kts
13-Feb-21 15:20 36.076428 -115.140712 270 2191ft 159kts
13-Feb-21 15:21 36.074970 -115.208742 268 3978ft 228kts
13-Feb-21 15:22 36.031740 -115.270736 204 6581ft 271kts
13-Feb-21 15:23 35.962319 -115.308851 221 6992ft 269kts
13-Feb-21 15:24 35.907090 -115.377291 227 8849ft 284kts
13-Feb-21 15:25 35.887114 -115.469471 274 10520ft 285kts
13-Feb-21 15:26 35.889366 -115.576789 274 10993ft 314kts
13-Feb-21 15:27 35.891755 -115.694313 274 11034ft 345kts
13-Feb-21 15:28 35.893842 -115.820733 275 14875ft 353kts
13-Feb-21 15:29 35.904552 -115.942709 292 18320ft 355kts
13-Feb-21 15:30 35.959948 -116.040488 313 18716ft 346kts
13-Feb-21 15:31 36.029887 -116.122773 315 18727ft 345kts
13-Feb-21 15:32 36.100610 -116.204733 315 20130ft 344kts
13-Feb-21 15:33 36.166623 -116.281062 314 23864ft 315kts
13-Feb-21 15:34 36.232102 -116.356913 314 25055ft 328kts
13-Feb-21 15:35 36.299940 -116.435570 314 25684ft 337kts
13-Feb-21 15:36 36.369397 -116.516248 314 26178ft 345kts
13-Feb-21 15:37 36.440566 -116.599096 314 26660ft 351kts
13-Feb-21 15:38 36.512530 -116.684018 313 27343ft 355kts
13-Feb-21 15:39 36.589921 -116.763461 321 28962ft 362kts
13-Feb-21 15:40 36.675219 -116.830206 322 31428ft 365kts
13-Feb-21 15:41 36.761702 -116.896382 322 31761ft 361kts
13-Feb-21 15:42 36.847628 -116.962049 323 31774ft 361kts
13-Feb-21 15:43 36.933855 -117.027978 323 31787ft 361kts
13-Feb-21 15:44 37.020183 -117.094054 323 31799ft 362kts
13-Feb-21 15:45 37.105984 -117.159840 323 31810ft 362kts
13-Feb-21 15:46 37.192087 -117.226029 323 31832ft 363kts
13-Feb-21 15:47 37.278375 -117.292514 323 31849ft 362kts
13-Feb-21 15:48 37.367536 -117.353152 326 31849ft 363kts
13-Feb-21 15:49 37.457531 -117.411674 327 31847ft 364kts
13-Feb-21 15:50 37.547374 -117.470075 327 31844ft 362kts
13-Feb-21 15:51 37.636866 -117.528297 327 31842ft 363kts
13-Feb-21 15:52 37.726055 -117.586414 327 31840ft 361kts
13-Feb-21 15:53 37.815341 -117.644729 327 31834ft 360kts
13-Feb-21 15:54 37.904553 -117.703407 326 31844ft 359kts
13-Feb-21 15:55 37.992849 -117.763028 320 31839ft 354kts
13-Feb-21 15:56 38.069345 -117.842816 316 31838ft 353kts
13-Feb-21 15:57 38.141301 -117.919792 316 31870ft 355kts
13-Feb-21 15:58 38.216876 -118.000952 316 31889ft 354kts
13-Feb-21 15:59 38.291876 -118.081657 316 31913ft 353kts
13-Feb-21 16:00 38.364005 -118.159357 316 31921ft 354kts
13-Feb-21 16:01 38.438794 -118.240084 316 31923ft 356kts
13-Feb-21 16:02 38.514354 -118.321931 316 31921ft 357kts
13-Feb-21 16:03 38.589721 -118.403924 316 31919ft 358kts
13-Feb-21 16:04 38.665767 -118.487027 316 31916ft 360kts
13-Feb-21 16:05 38.742272 -118.570973 316 31914ft 361kts
13-Feb-21 16:06 38.819129 -118.655616 316 31917ft 363kts
13-Feb-21 16:07 38.893253 -118.737820 316 31924ft 364kts
13-Feb-21 16:08 38.970678 -118.823766 318 31922ft 360kts
13-Feb-21 16:09 39.040805 -118.901941 321 31942ft 322kts
13-Feb-21 16:10 39.108255 -118.977199 321 31968ft 323kts
13-Feb-21 16:11 39.176164 -119.053144 321 31981ft 321kts
13-Feb-21 16:12 39.251249 -119.114179 335 31977ft 321kts
13-Feb-21 16:13 39.336141 -119.151552 337 31975ft 321kts
13-Feb-21 16:14 39.421435 -119.186781 337 31971ft 319kts
13-Feb-21 16:15 39.505582 -119.221397 337 31969ft 318kts
13-Feb-21 16:16 39.589834 -119.256021 337 31969ft 316kts
13-Feb-21 16:17 39.673901 -119.290584 337 31970ft 313kts
13-Feb-21 16:18 39.757099 -119.324839 337 31968ft 311kts
13-Feb-21 16:19 39.839737 -119.358919 337 31964ft 309kts
13-Feb-21 16:20 39.921542 -119.392737 337 31960ft 307kts
13-Feb-21 16:21 40.003354 -119.426634 337 31957ft 305kts
13-Feb-21 16:22 40.085221 -119.460663 337 31954ft 308kts
13-Feb-21 16:23 40.167480 -119.494924 337 31984ft 308kts
13-Feb-21 16:24 40.248351 -119.528690 337 31972ft 306kts
13-Feb-21 16:25 40.330174 -119.562957 337 31960ft 307kts
13-Feb-21 16:26 40.412003 -119.597319 337 31956ft 308kts
13-Feb-21 16:27 40.494031 -119.631854 337 31953ft 310kts
13-Feb-21 16:28 40.576825 -119.667006 336 31966ft 311kts
13-Feb-21 16:29 40.659753 -119.702459 336 31963ft 313kts
13-Feb-21 16:30 40.743940 -119.738340 337 31965ft 315kts
13-Feb-21 16:31 40.827972 -119.774142 336 31966ft 318kts
13-Feb-21 16:32 40.912832 -119.810363 337 31964ft 321kts
13-Feb-21 16:33 40.998295 -119.846914 337 31960ft 323kts
13-Feb-21 16:34 41.084253 -119.883770 337 31958ft 325kts
13-Feb-21 16:35 41.170059 -119.920663 337 31983ft 326kts
13-Feb-21 16:36 41.250886 -119.955505 336 31980ft 327kts
13-Feb-21 16:37 41.339305 -119.993733 337 31971ft 328kts
13-Feb-21 16:39 41.424678 -120.030743 337 31962ft 321kts
13-Feb-21 16:40 41.509881 -120.067829 337 31963ft 323kts
13-Feb-21 16:41 41.595247 -120.105066 336 31965ft 324kts
13-Feb-21 16:42 41.681419 -120.142757 336 31968ft 325kts
13-Feb-21 16:43 41.767241 -120.180403 336 31970ft 325kts
13-Feb-21 16:44 41.853628 -120.218406 336 31973ft 326kts
13-Feb-21 16:45 41.939522 -120.256300 337 31972ft 326kts
13-Feb-21 16:46 42.025487 -120.294342 337 31950ft 327kts
13-Feb-21 16:47 42.112059 -120.332755 337 31955ft 328kts
13-Feb-21 16:48 42.198746 -120.371330 337 31957ft 328kts
13-Feb-21 16:49 42.285520 -120.410062 337 31954ft 328kts
13-Feb-21 16:50 42.372280 -120.448905 337 31951ft 329kts
13-Feb-21 16:51 42.459603 -120.488109 337 31948ft 328kts
13-Feb-21 16:52 42.544128 -120.534676 332 31945ft 327kts
13-Feb-21 16:53 42.627331 -120.585827 332 31938ft 328kts
13-Feb-21 16:53 42.696891 -120.628255 332 31933ft 328kts
13-Feb-21 16:55 42.794657 -120.688114 332 31941ft 329kts
13-Feb-21 16:56 42.877988 -120.739239 332 31939ft 330kts
13-Feb-21 16:56 42.947412 -120.781788 332 31936ft 330kts
13-Feb-21 16:58 43.045660 -120.842034 332 31933ft 331kts
13-Feb-21 16:58 43.115432 -120.884876 332 31947ft 331kts
13-Feb-21 16:59 43.199322 -120.936486 332 31937ft 330kts
13-Feb-21 17:01 43.293111 -120.994349 332 31943ft 330kts
13-Feb-21 17:01 43.362685 -121.037393 332 31944ft 329kts
13-Feb-21 17:02 43.446227 -121.089226 332 31945ft 327kts
13-Feb-21 17:03 43.528376 -121.140362 332 31946ft 325kts
13-Feb-21 17:04 43.609966 -121.191313 331 31948ft 323kts
13-Feb-21 17:05 43.690685 -121.241884 331 31945ft 320kts
13-Feb-21 17:06 43.771608 -121.292746 331 31937ft 317kts
13-Feb-21 17:07 43.851532 -121.343966 331 31928ft 314kts
13-Feb-21 17:08 43.930302 -121.394240 331 31926ft 312kts
13-Feb-21 17:09 44.008792 -121.444254 331 31918ft 311kts
13-Feb-21 17:10 44.088852 -121.495283 331 31919ft 316kts
13-Feb-21 17:11 44.168303 -121.545996 331 31949ft 314kts
13-Feb-21 17:12 44.247583 -121.596676 331 31947ft 313kts
13-Feb-21 17:13 44.326624 -121.647371 331 31937ft 314kts
13-Feb-21 17:14 44.405511 -121.698624 330 31993ft 313kts
13-Feb-21 17:15 44.484858 -121.750166 330 32028ft 314kts
13-Feb-21 17:16 44.564010 -121.801550 330 32029ft 318kts
13-Feb-21 17:17 44.644868 -121.854097 331 32026ft 322kts
13-Feb-21 17:18 44.725788 -121.906794 330 32023ft 327kts
13-Feb-21 17:19 44.807772 -121.960331 331 31990ft 333kts
13-Feb-21 17:20 44.891118 -122.014885 330 31934ft 325kts
13-Feb-21 17:21 44.972941 -122.068656 330 31884ft 326kts
13-Feb-21 17:22 45.056525 -122.123822 330 31937ft 331kts
13-Feb-21 17:23 45.140874 -122.179642 330 32041ft 337kts
13-Feb-21 17:24 45.226805 -122.236693 330 32040ft 341kts
13-Feb-21 17:25 45.308868 -122.291626 330 32036ft 342kts
13-Feb-21 17:26 45.387205 -122.344970 330 31260ft 317kts
13-Feb-21 17:27 45.468259 -122.399954 330 30244ft 326kts
13-Feb-21 17:28 45.548371 -122.454105 330 29221ft 327kts
13-Feb-21 17:29 45.624274 -122.505489 330 28260ft 331kts
13-Feb-21 17:30 45.708050 -122.562300 330 27197ft 334kts
13-Feb-21 17:31 45.797833 -122.602170 344 26126ft 345kts
13-Feb-21 17:32 45.893130 -122.625968 344 25061ft 348kts
13-Feb-21 17:33 45.988569 -122.649767 345 24007ft 351kts
13-Feb-21 17:34 46.084277 -122.673781 345 23018ft 357kts
13-Feb-21 17:35 46.175841 -122.692959 347 22090ft 352kts
13-Feb-21 17:36 46.271256 -122.711902 347 21237ft 342kts
13-Feb-21 17:37 46.363194 -122.724677 353 19814ft 339kts
13-Feb-21 17:38 46.453427 -122.727722 353 18441ft 333kts
13-Feb-21 17:39 46.547424 -122.730966 353 17022ft 326kts
13-Feb-21 17:40 46.630988 -122.733906 353 15734ft 320kts
13-Feb-21 17:41 46.695607 -122.736202 353 14722ft 316kts
13-Feb-21 17:42 46.784673 -122.731362 21 13382ft 320kts
13-Feb-21 17:43 46.854154 -122.655140 32 12625ft 303kts
13-Feb-21 17:44 46.920056 -122.580572 31 11996ft 297kts
13-Feb-21 17:45 46.994364 -122.537622 11 11138ft 286kts
13-Feb-21 17:46 47.064672 -122.506997 12 10049ft 282kts
13-Feb-21 17:47 47.133324 -122.490123 3 9995ft 279kts
13-Feb-21 17:48 47.212760 -122.476131 2 9965ft 275kts
13-Feb-21 17:49 47.287354 -122.464807 3 9204ft 258kts
13-Feb-21 17:50 47.337672 -122.457193 3 8428ft 258kts
13-Feb-21 17:51 47.411133 -122.453716 358 7370ft 255kts
13-Feb-21 17:52 47.477838 -122.454102 358 6491ft 237kts
13-Feb-21 17:53 47.542323 -122.450580 9 5997ft 231kts
13-Feb-21 17:54 47.602250 -122.434975 9 5978ft 214kts
13-Feb-21 17:55 47.659724 -122.420098 9 5990ft 211kts
13-Feb-21 17:56 47.716989 -122.405431 9 5991ft 208kts
13-Feb-21 17:57 47.774869 -122.400651 359 5993ft 209kts
13-Feb-21 17:58 47.833675 -122.400393 359 5993ft 209kts
13-Feb-21 17:59 47.892403 -122.400195 359 6007ft 209kts
13-Feb-21 18:00 47.933634 -122.364249 107 6052ft 192kts
13-Feb-21 18:01 47.897360 -122.325474 155 6020ft 184kts
13-Feb-21 18:02 47.849916 -122.303811 179 5997ft 181kts
13-Feb-21 18:03 47.802093 -122.304352 180 5992ft 177kts
13-Feb-21 18:04 47.762833 -122.304768 180 5992ft 178kts
13-Feb-21 18:05 47.720810 -122.305201 179 5510ft 173kts
13-Feb-21 18:06 47.676578 -122.305649 179 4687ft 169kts
13-Feb-21 18:07 47.638866 -122.306026 178 3941ft 165kts
13-Feb-21 18:08 47.614561 -122.306279 178 3450ft 160kts
13-Feb-21 18:09 47.614561 -122.306279 178 3450ft 160kts
13-Feb-21 18:10 47.607734 -122.306346 178 3324ft 159kts
13-Feb-21 18:11 47.583901 -122.306571 178 2871ft 160kts
13-Feb-21 18:12 47.558559 -122.306827 178 2370ft 149kts
13-Feb-21 18:13 47.536009 -122.307029 178 1931ft 142kts
13-Feb-21 18:14 47.515412 -122.307250 178 1528ft 141kts
13-Feb-21 18:15 47.488162 -122.307457 175 967ft 140kts
13-Feb-21 18:16 47.460334 -122.307833 175 509ft 139kts
13-Feb-21 18:17 47.440992 -122.307970 180 482ft 30kts
13-Feb-21 18:18 47.439005 -122.306802 99 482ft 0kts
13-Feb-21 18:19 47.437656 -122.306273 177 482ft 6kts
13-Feb-21 18:20 47.436476 -122.304490 136 482ft 0kts
13-Feb-21 18:21 47.436476 -122.304490 135 482ft 0kts

Navigation Log

Ident Type
Flight plan parsing failed, navigation log unavailable